createdAt,value
2018-12-16T00:00:56.547Z,24.30
2018-12-16T00:03:24.188Z,25.40
2018-12-16T00:05:51.812Z,24.10
2018-12-16T00:08:19.491Z,19.23
2018-12-16T00:10:47.130Z,24.40
2018-12-16T00:13:14.935Z,27.67
2018-12-16T00:15:42.666Z,26.17
2018-12-16T00:18:10.352Z,26.50
2018-12-16T00:20:38.011Z,25.47
2018-12-16T00:23:05.631Z,23.90
2018-12-16T00:25:33.343Z,25.73
2018-12-16T00:28:01.095Z,27.93
2018-12-16T00:30:28.852Z,24.23
2018-12-16T00:32:56.503Z,26.80
2018-12-16T00:35:24.290Z,26.23
2018-12-16T00:37:51.952Z,27.17
2018-12-16T00:40:19.746Z,26.70
2018-12-16T00:42:47.376Z,27.17
2018-12-16T00:45:15.012Z,22.37
2018-12-16T00:47:42.635Z,27.67
2018-12-16T00:50:10.433Z,24.80
2018-12-16T00:52:38.053Z,23.13
2018-12-16T00:55:06.065Z,22.90
2018-12-16T00:57:33.951Z,27.60
2018-12-16T01:00:01.740Z,27.93
2018-12-16T01:02:35.116Z,22.23
2018-12-16T01:05:03.741Z,27.17
2018-12-16T01:07:31.400Z,28.90
2018-12-16T01:09:59.153Z,27.70
2018-12-16T01:12:26.836Z,32.37
2018-12-16T01:15:00.742Z,25.33
2018-12-16T01:17:28.490Z,29.50
2018-12-16T01:19:56.186Z,26.13
2018-12-16T01:22:23.833Z,27.00
2018-12-16T01:24:51.460Z,28.93
2018-12-16T01:27:19.076Z,30.43
2018-12-16T01:29:46.693Z,29.73
2018-12-16T01:32:14.537Z,28.77
2018-12-16T01:34:42.229Z,24.20
2018-12-16T01:37:10.149Z,32.77
2018-12-16T01:39:37.809Z,30.80
2018-12-16T01:42:05.675Z,28.63
2018-12-16T01:44:33.517Z,27.43
2018-12-16T01:47:01.360Z,28.33
2018-12-16T01:49:29.108Z,31.10
2018-12-16T01:51:57.848Z,26.60
2018-12-16T01:54:25.523Z,28.00
2018-12-16T01:56:53.202Z,25.33
2018-12-16T01:59:20.808Z,28.13
2018-12-16T02:01:54.013Z,27.10
2018-12-16T02:04:21.835Z,29.20
2018-12-16T02:06:49.648Z,34.80
2018-12-16T02:09:17.498Z,34.27
2018-12-16T02:11:45.195Z,35.40
2018-12-16T02:14:12.856Z,35.70
2018-12-16T02:16:40.332Z,36.33
2018-12-16T02:19:08.018Z,28.77
2018-12-16T02:21:35.740Z,31.30
2018-12-16T02:24:03.474Z,28.47
2018-12-16T02:26:31.326Z,31.57
2018-12-16T02:28:58.998Z,33.20
2018-12-16T02:31:26.960Z,31.00
2018-12-16T02:33:54.838Z,37.63
2018-12-16T02:36:22.783Z,30.20
2018-12-16T02:38:50.508Z,35.83
2018-12-16T02:41:18.239Z,36.83
2018-12-16T02:43:45.917Z,31.53
2018-12-16T02:46:13.596Z,33.40
2018-12-16T02:48:41.220Z,39.23
2018-12-16T02:51:09.936Z,37.70
2018-12-16T02:53:37.787Z,37.73
2018-12-16T02:56:05.428Z,39.80
2018-12-16T02:58:33.728Z,38.70
2018-12-16T03:01:01.372Z,38.53
2018-12-16T03:03:29.115Z,38.13
2018-12-16T03:05:56.884Z,39.80
2018-12-16T03:08:24.687Z,43.77
2018-12-16T03:10:52.492Z,34.67
2018-12-16T03:13:20.589Z,39.23
2018-12-16T03:15:48.223Z,36.00
2018-12-16T03:18:15.867Z,43.37
2018-12-16T03:20:43.563Z,39.57
2018-12-16T03:23:12.470Z,48.30
2018-12-16T03:25:40.498Z,40.60
2018-12-16T03:28:08.184Z,36.73
2018-12-16T03:30:35.840Z,45.50
2018-12-16T03:33:03.622Z,39.03
2018-12-16T03:35:31.321Z,38.03
2018-12-16T03:37:58.997Z,38.70
2018-12-16T03:40:26.733Z,36.40
2018-12-16T03:42:54.378Z,48.67
2018-12-16T03:45:22.086Z,44.17
2018-12-16T03:47:49.760Z,45.00
2018-12-16T03:50:17.503Z,43.87
2018-12-16T03:52:45.285Z,45.08
2018-12-16T03:55:12.955Z,41.83
2018-12-16T03:57:40.695Z,43.53
2018-12-16T04:00:08.421Z,44.67
2018-12-16T04:02:36.136Z,36.93
2018-12-16T04:05:04.339Z,43.90
2018-12-16T04:07:32.070Z,41.63
2018-12-16T04:09:59.714Z,41.55
2018-12-16T04:12:27.642Z,48.43
2018-12-16T04:14:55.311Z,48.40
2018-12-16T04:17:23.146Z,44.30
2018-12-16T04:19:50.982Z,48.37
2018-12-16T04:22:18.847Z,46.00
2018-12-16T04:24:46.518Z,42.93
2018-12-16T04:27:14.435Z,47.23
2018-12-16T04:29:42.144Z,48.23
2018-12-16T04:32:09.928Z,45.47
2018-12-16T04:34:37.834Z,53.70
2018-12-16T04:37:05.480Z,53.50
2018-12-16T04:39:33.168Z,53.30
2018-12-16T04:42:01.081Z,52.10
2018-12-16T04:44:28.768Z,49.50
2018-12-16T04:46:56.629Z,47.43
2018-12-16T04:49:24.276Z,49.10
2018-12-16T04:51:52.000Z,46.10
2018-12-16T04:54:19.684Z,51.60
2018-12-16T04:56:47.340Z,58.80
2018-12-16T04:59:15.062Z,47.80
2018-12-16T05:01:43.431Z,51.60
2018-12-16T05:04:11.163Z,52.03
2018-12-16T05:06:38.924Z,47.55
2018-12-16T05:09:07.103Z,44.97
2018-12-16T05:11:34.799Z,48.80
2018-12-16T05:14:02.482Z,49.30
2018-12-16T05:16:30.176Z,40.47
2018-12-16T05:18:57.877Z,46.67
2018-12-16T05:21:25.691Z,49.93
2018-12-16T05:23:53.417Z,42.53
2018-12-16T05:26:21.201Z,45.65
2018-12-16T05:28:48.929Z,35.63
2018-12-16T05:31:16.681Z,39.43
2018-12-16T05:33:44.364Z,48.63
2018-12-16T05:36:12.668Z,43.98
2018-12-16T05:38:40.466Z,45.10
2018-12-16T05:41:08.259Z,43.30
2018-12-16T05:43:35.991Z,46.17
2018-12-16T05:46:03.829Z,40.77
2018-12-16T05:48:31.584Z,45.85
2018-12-16T05:50:59.396Z,48.63
2018-12-16T05:53:27.085Z,41.77
2018-12-16T05:55:54.709Z,44.67
2018-12-16T05:58:22.379Z,33.78
2018-12-16T06:00:50.124Z,42.93
2018-12-16T06:03:17.802Z,44.33
2018-12-16T06:05:45.582Z,46.23
2018-12-16T06:08:13.256Z,43.77
2018-12-16T06:10:40.970Z,37.67
2018-12-16T06:13:08.657Z,41.47
2018-12-16T06:15:36.333Z,40.93
2018-12-16T06:18:04.425Z,41.20
2018-12-16T06:20:32.309Z,40.97
2018-12-16T06:23:00.005Z,38.17
2018-12-16T06:25:27.776Z,41.73
2018-12-16T06:27:55.471Z,41.27
2018-12-16T06:30:23.845Z,42.90
2018-12-16T06:32:52.620Z,39.47
2018-12-16T06:35:20.356Z,41.10
2018-12-16T06:37:48.030Z,39.00
2018-12-16T06:40:15.863Z,35.63
2018-12-16T06:42:43.558Z,37.90
2018-12-16T06:45:11.385Z,37.43
2018-12-16T06:47:39.141Z,36.93
2018-12-16T06:50:07.168Z,39.20
2018-12-16T06:52:35.754Z,43.30
2018-12-16T06:55:03.596Z,35.77
2018-12-16T06:57:31.253Z,37.83
2018-12-16T06:59:59.059Z,35.67
2018-12-16T07:02:26.733Z,29.83
2018-12-16T07:04:55.419Z,33.50
2018-12-16T07:07:23.163Z,40.50
2018-12-16T07:09:50.930Z,36.50
2018-12-16T07:12:18.853Z,36.53
2018-12-16T07:14:46.761Z,40.23
2018-12-16T07:17:14.459Z,35.87
2018-12-16T07:19:42.372Z,39.70
2018-12-16T07:22:10.142Z,40.47
2018-12-16T07:24:38.235Z,31.52
2018-12-16T07:27:06.036Z,36.33
2018-12-16T07:29:33.902Z,34.33
2018-12-16T07:32:01.635Z,38.87
2018-12-16T07:34:29.483Z,32.80
2018-12-16T07:36:57.210Z,34.80
2018-12-16T07:39:24.929Z,34.87
2018-12-16T07:41:52.844Z,37.43
2018-12-16T07:44:20.622Z,40.80
2018-12-16T07:46:48.504Z,39.57
2018-12-16T07:49:16.531Z,38.10
2018-12-16T07:51:44.245Z,38.77
2018-12-16T07:54:16.013Z,33.87
2018-12-16T07:56:41.939Z,33.10
2018-12-16T07:59:09.719Z,31.00
2018-12-16T08:01:37.543Z,36.87
2018-12-16T08:04:05.299Z,34.30
2018-12-16T08:06:33.106Z,29.17
2018-12-16T08:09:00.830Z,35.50
2018-12-16T08:11:28.604Z,32.20
2018-12-16T08:13:56.574Z,38.20
2018-12-16T08:16:24.332Z,33.60
2018-12-16T08:21:19.062Z,31.77
2018-12-16T08:23:47.769Z,36.60
2018-12-16T08:26:15.566Z,39.30
2018-12-16T08:28:43.510Z,40.63
2018-12-16T08:31:11.281Z,34.07
2018-12-16T08:33:38.978Z,38.23
2018-12-16T08:36:06.737Z,35.83
2018-12-16T08:38:34.534Z,31.90
2018-12-16T08:41:02.303Z,35.30
2018-12-16T08:43:29.997Z,38.20
2018-12-16T08:45:57.652Z,35.97
2018-12-16T08:48:25.457Z,35.10
2018-12-16T08:50:53.106Z,47.40
2018-12-16T08:53:20.821Z,36.47
2018-12-16T08:55:48.503Z,43.20
2018-12-16T08:58:16.166Z,40.13
2018-12-16T09:00:43.856Z,39.10
2018-12-16T09:03:11.550Z,39.20
2018-12-16T09:05:39.300Z,35.43
2018-12-16T09:08:07.186Z,37.20
2018-12-16T09:10:34.927Z,35.60
2018-12-16T09:13:02.580Z,38.07
2018-12-16T09:15:30.236Z,32.30
2018-12-16T09:17:57.916Z,37.33
2018-12-16T09:20:25.764Z,40.50
2018-12-16T09:22:53.518Z,38.03
2018-12-16T09:25:21.349Z,35.90
2018-12-16T09:27:49.013Z,38.43
2018-12-16T09:30:16.824Z,31.57
2018-12-16T09:32:44.519Z,36.43
2018-12-16T09:35:12.399Z,34.10
2018-12-16T09:37:40.796Z,40.93
2018-12-16T09:40:08.421Z,34.40
2018-12-16T09:42:36.178Z,34.37
2018-12-16T09:45:05.067Z,44.13
2018-12-16T09:47:33.086Z,35.80
2018-12-16T09:50:00.797Z,33.67
2018-12-16T09:52:28.475Z,34.47
2018-12-16T09:54:56.114Z,33.00
2018-12-16T09:57:23.824Z,34.53
2018-12-16T09:59:51.555Z,32.40
2018-12-16T10:02:19.317Z,41.50
2018-12-16T10:04:47.048Z,34.90
2018-12-16T10:07:14.833Z,34.90
2018-12-16T10:09:42.542Z,35.53
2018-12-16T10:12:10.334Z,35.83
2018-12-16T10:14:37.946Z,38.30
2018-12-16T10:17:05.631Z,37.03
2018-12-16T10:19:33.525Z,39.10
2018-12-16T10:22:02.308Z,37.70
2018-12-16T10:24:29.922Z,38.03
2018-12-16T10:26:57.777Z,34.57
2018-12-16T10:29:25.761Z,35.73
2018-12-16T10:31:53.629Z,34.20
2018-12-16T10:34:21.476Z,39.20
2018-12-16T10:36:49.166Z,40.73
2018-12-16T10:39:16.899Z,35.80
2018-12-16T10:41:44.581Z,30.57
2018-12-16T10:44:12.322Z,37.07
2018-12-16T10:46:39.995Z,32.07
2018-12-16T10:49:07.617Z,33.17
2018-12-16T10:51:35.914Z,34.07
2018-12-16T10:54:03.562Z,36.90
2018-12-16T10:56:31.255Z,34.47
2018-12-16T10:58:58.933Z,33.30
2018-12-16T11:01:28.735Z,36.90
2018-12-16T11:03:56.481Z,34.07
2018-12-16T11:06:24.257Z,34.27
2018-12-16T11:08:51.988Z,39.73
2018-12-16T11:11:19.869Z,35.70
2018-12-16T11:13:47.638Z,38.17
2018-12-16T11:16:16.068Z,40.87
2018-12-16T11:18:43.928Z,36.90
2018-12-16T11:21:11.807Z,35.43
2018-12-16T11:23:39.450Z,39.57
2018-12-16T11:26:07.296Z,40.67
2018-12-16T11:28:34.979Z,49.80
2018-12-16T11:31:02.729Z,47.03
2018-12-16T11:33:30.516Z,40.30
2018-12-16T11:35:58.218Z,43.93
2018-12-16T11:38:25.982Z,38.93
2018-12-16T11:40:53.707Z,53.83
2018-12-16T11:43:21.359Z,41.60
2018-12-16T11:45:48.971Z,42.43
2018-12-16T11:48:16.892Z,43.63
2018-12-16T11:50:44.664Z,43.90
2018-12-16T11:53:12.291Z,52.63
2018-12-16T11:55:40.471Z,40.90
2018-12-16T11:58:08.373Z,40.50
2018-12-16T12:00:36.002Z,42.50
2018-12-16T12:03:04.516Z,38.77
2018-12-16T12:05:32.259Z,42.47
2018-12-16T12:08:00.213Z,45.90
2018-12-16T12:10:28.053Z,47.73
2018-12-16T12:12:55.700Z,46.13
2018-12-16T12:15:23.485Z,38.10
2018-12-16T12:17:51.170Z,43.00
2018-12-16T12:20:18.899Z,36.60
2018-12-16T12:22:46.872Z,41.03
2018-12-16T12:25:19.783Z,43.20
2018-12-16T12:27:44.394Z,41.10
2018-12-16T12:30:12.066Z,43.00
2018-12-16T12:32:39.805Z,43.37
2018-12-16T12:35:07.678Z,39.80
2018-12-16T12:37:35.456Z,42.10
2018-12-16T12:40:03.836Z,44.23
2018-12-16T12:42:31.775Z,39.87
2018-12-16T12:44:59.521Z,47.47
2018-12-16T12:47:27.355Z,43.17
2018-12-16T12:49:55.105Z,45.07
2018-12-16T12:52:22.959Z,40.50
2018-12-16T12:54:50.731Z,41.90
2018-12-16T12:57:18.625Z,41.60
2018-12-16T12:59:46.341Z,47.13
2018-12-16T13:02:14.057Z,44.83
2018-12-16T13:04:42.615Z,39.20
2018-12-16T13:07:10.441Z,38.40
2018-12-16T13:09:38.193Z,40.83
2018-12-16T13:12:05.834Z,45.20
2018-12-16T13:14:33.623Z,39.97
2018-12-16T13:17:01.925Z,35.97
2018-12-16T13:19:29.765Z,34.70
2018-12-16T13:21:57.637Z,36.10
2018-12-16T13:24:25.277Z,38.43
2018-12-16T13:26:52.953Z,40.20
2018-12-16T13:29:20.667Z,43.73
2018-12-16T13:31:48.347Z,41.97
2018-12-16T13:34:15.994Z,41.70
2018-12-16T13:36:43.896Z,40.50
2018-12-16T13:39:11.520Z,38.40
2018-12-16T13:41:39.154Z,45.43
2018-12-16T13:44:06.949Z,42.13
2018-12-16T13:46:34.610Z,42.13
2018-12-16T13:49:02.283Z,40.37
2018-12-16T13:51:30.025Z,39.43
2018-12-16T13:53:57.707Z,40.50
2018-12-16T13:56:25.618Z,46.23
2018-12-16T14:01:20.057Z,40.10
2018-12-16T14:03:47.731Z,42.87
2018-12-16T14:06:15.405Z,40.53
2018-12-16T14:08:43.039Z,45.37
2018-12-16T14:11:10.822Z,45.70
2018-12-16T14:13:38.619Z,39.40
2018-12-16T14:16:06.294Z,36.50
2018-12-16T14:18:33.955Z,41.90
2018-12-16T14:21:01.672Z,39.20
2018-12-16T14:23:29.365Z,45.73
2018-12-16T14:25:57.160Z,34.73
2018-12-16T14:28:24.849Z,38.50
2018-12-16T14:30:52.551Z,38.37
2018-12-16T14:33:20.314Z,42.30
2018-12-16T14:35:48.076Z,37.87
2018-12-16T14:38:15.879Z,35.50
2018-12-16T14:40:43.577Z,35.63
2018-12-16T14:43:12.023Z,41.37
2018-12-16T14:45:39.702Z,36.67
2018-12-16T14:48:07.360Z,41.00
2018-12-16T14:50:35.105Z,41.40
2018-12-16T14:53:02.968Z,41.23
2018-12-16T14:55:30.859Z,35.47
2018-12-16T14:57:58.497Z,39.00
2018-12-16T15:00:26.257Z,41.53
2018-12-16T15:02:53.541Z,40.33
2018-12-16T15:05:21.310Z,37.43
2018-12-16T15:07:49.009Z,48.37
2018-12-16T15:10:16.813Z,37.27
2018-12-16T15:12:44.598Z,41.10
2018-12-16T15:15:12.361Z,39.47
2018-12-16T15:17:42.946Z,36.97
2018-12-16T15:20:09.869Z,41.30
2018-12-16T15:22:37.637Z,39.33
2018-12-16T15:25:05.934Z,39.20
2018-12-16T15:27:33.616Z,37.20
2018-12-16T15:30:01.368Z,36.43
2018-12-16T15:32:28.985Z,46.83
2018-12-16T15:34:56.344Z,41.73
2018-12-16T15:37:24.188Z,39.50
2018-12-16T15:39:52.003Z,38.30
2018-12-16T15:42:19.706Z,40.57
2018-12-16T15:44:47.546Z,37.50
2018-12-16T15:47:15.321Z,34.73
2018-12-16T15:49:43.215Z,35.30
2018-12-16T15:52:11.212Z,44.57
2018-12-16T15:54:39.270Z,36.50
2018-12-16T15:57:07.275Z,47.97
2018-12-16T15:59:35.177Z,41.67
2018-12-16T16:02:02.867Z,42.20
2018-12-16T16:04:30.650Z,43.10
2018-12-16T16:06:58.357Z,41.23
2018-12-16T16:09:26.148Z,46.83
2018-12-16T16:11:53.914Z,41.70
2018-12-16T16:14:21.674Z,42.60
2018-12-16T16:16:49.439Z,43.07
2018-12-16T16:19:17.240Z,43.00
2018-12-16T16:21:45.003Z,47.87
2018-12-16T16:24:12.755Z,44.40
2018-12-16T16:26:40.586Z,41.93
2018-12-16T16:29:08.330Z,48.60
2018-12-16T16:31:36.015Z,43.67
2018-12-16T16:34:03.972Z,47.47
2018-12-16T16:36:31.657Z,43.67
2018-12-16T16:38:59.482Z,45.13
2018-12-16T16:41:27.173Z,44.60
2018-12-16T16:43:55.046Z,44.80
2018-12-16T16:46:22.752Z,48.10
2018-12-16T16:48:50.428Z,43.23
2018-12-16T16:51:18.219Z,39.90
2018-12-16T16:53:46.116Z,48.43
2018-12-16T16:56:13.859Z,42.27
2018-12-16T16:58:41.805Z,49.67
2018-12-16T17:01:09.520Z,45.97
2018-12-16T17:03:37.235Z,47.07
2018-12-16T17:06:04.878Z,42.37
2018-12-16T17:08:32.678Z,44.53
2018-12-16T17:11:00.958Z,41.47
2018-12-16T17:13:28.833Z,42.67
2018-12-16T17:15:56.611Z,40.87
2018-12-16T17:18:24.482Z,51.43
2018-12-16T17:20:52.310Z,42.80
2018-12-16T17:23:20.081Z,51.40
2018-12-16T17:25:48.454Z,38.30
2018-12-16T17:28:16.493Z,49.37
2018-12-16T17:30:44.285Z,45.00
2018-12-16T17:33:12.101Z,46.23
2018-12-16T17:35:39.807Z,44.87
2018-12-16T17:38:07.504Z,45.33
2018-12-16T17:40:35.265Z,43.07
2018-12-16T17:43:03.000Z,49.60
2018-12-16T17:45:30.828Z,43.40
2018-12-16T17:47:59.353Z,41.20
2018-12-16T17:50:27.027Z,39.93
2018-12-16T17:52:54.767Z,51.17
2018-12-16T17:55:22.569Z,41.60
2018-12-16T17:57:50.214Z,41.53
2018-12-16T18:00:18.629Z,35.30
2018-12-16T18:02:46.343Z,41.90
2018-12-16T18:05:13.984Z,41.53
2018-12-16T18:07:41.689Z,43.07
2018-12-16T18:10:09.362Z,39.80
2018-12-16T18:12:37.124Z,43.93
2018-12-16T18:15:06.974Z,40.83
2018-12-16T18:17:35.035Z,46.57
2018-12-16T18:20:02.966Z,38.97
2018-12-16T18:22:30.730Z,42.87
2018-12-16T18:24:58.362Z,46.40
2018-12-16T18:27:26.042Z,43.40
2018-12-16T18:29:54.402Z,39.47
2018-12-16T18:32:22.068Z,40.07
2018-12-16T18:34:49.978Z,43.67
2018-12-16T18:37:17.318Z,38.93
2018-12-16T18:39:45.652Z,41.57
2018-12-16T18:42:13.687Z,37.17
2018-12-16T18:44:41.325Z,42.50
2018-12-16T18:47:09.058Z,35.03
2018-12-16T18:49:36.797Z,42.03
2018-12-16T18:52:04.469Z,38.07
2018-12-16T18:54:32.205Z,41.77
2018-12-16T18:57:06.952Z,37.27
2018-12-16T18:59:29.505Z,39.03
2018-12-16T19:01:57.181Z,35.60
2018-12-16T19:04:24.822Z,42.43
2018-12-16T19:06:53.033Z,39.43
2018-12-16T19:09:20.676Z,43.03
2018-12-16T19:11:48.501Z,36.70
2018-12-16T19:14:16.252Z,39.50
2018-12-16T19:16:43.996Z,40.30
2018-12-16T19:19:12.347Z,39.37
2018-12-16T19:21:40.269Z,38.70
2018-12-16T19:24:07.909Z,33.63
2018-12-16T19:26:35.540Z,39.23
2018-12-16T19:29:03.499Z,34.93
2018-12-16T19:31:31.156Z,32.80
2018-12-16T19:33:58.794Z,35.53
2018-12-16T19:36:26.562Z,37.67
2018-12-16T19:38:54.335Z,36.50
2018-12-16T19:41:22.256Z,32.03
2018-12-16T19:43:50.051Z,36.13
2018-12-16T19:46:17.930Z,36.70
2018-12-16T19:48:45.622Z,37.23
2018-12-16T19:51:13.337Z,36.50
2018-12-16T19:53:41.100Z,39.90
2018-12-16T19:56:08.880Z,34.40
2018-12-16T19:58:36.657Z,39.73
2018-12-16T20:01:04.459Z,42.33
2018-12-16T20:03:32.549Z,34.37
2018-12-16T20:06:05.937Z,41.53
2018-12-16T20:08:33.553Z,33.00
2018-12-16T20:11:01.237Z,36.10
2018-12-16T20:13:29.034Z,40.53
2018-12-16T20:16:01.478Z,40.83
2018-12-16T20:18:26.330Z,37.97
2018-12-16T20:20:54.108Z,37.53
2018-12-16T20:23:21.828Z,36.97
2018-12-16T20:25:49.551Z,36.87
2018-12-16T20:28:17.220Z,36.30
2018-12-16T20:30:44.962Z,33.13
2018-12-16T20:33:12.617Z,32.53
2018-12-16T20:35:40.384Z,30.63
2018-12-16T20:38:08.287Z,33.00
2018-12-16T20:40:35.943Z,37.17
2018-12-16T20:43:03.756Z,34.57
2018-12-16T20:45:31.535Z,31.60
2018-12-16T20:47:59.272Z,32.37
2018-12-16T20:50:26.949Z,31.33
2018-12-16T20:52:54.763Z,32.03
2018-12-16T20:55:22.491Z,28.87
2018-12-16T20:57:50.249Z,28.07
2018-12-16T21:00:17.897Z,34.40
2018-12-16T21:02:45.603Z,31.53
2018-12-16T21:05:17.688Z,30.67
2018-12-16T21:07:45.354Z,28.63
2018-12-16T21:10:13.028Z,31.67
2018-12-16T21:12:46.606Z,28.50
2018-12-16T21:15:20.196Z,32.80
2018-12-16T21:17:53.682Z,30.70
2018-12-16T21:20:21.577Z,23.77
2018-12-16T21:22:49.394Z,27.83
2018-12-16T21:25:17.225Z,26.13
2018-12-16T21:27:45.033Z,26.20
2018-12-16T21:30:12.749Z,29.83
2018-12-16T21:32:40.508Z,30.00
2018-12-16T21:35:08.343Z,34.03
2018-12-16T21:37:36.050Z,31.27
2018-12-16T21:40:05.088Z,32.40
2018-12-16T21:42:33.058Z,33.97
2018-12-16T21:45:00.891Z,26.63
2018-12-16T21:47:28.725Z,31.73
2018-12-16T21:49:56.691Z,36.47
2018-12-16T21:52:24.457Z,29.37
2018-12-16T21:54:52.242Z,31.40
2018-12-16T21:57:19.978Z,30.93
2018-12-16T21:59:47.640Z,27.57
2018-12-16T22:02:15.488Z,33.20
2018-12-16T22:04:43.168Z,26.07
2018-12-16T22:07:10.888Z,32.50
2018-12-16T22:09:38.655Z,33.00
2018-12-16T22:12:06.379Z,37.10
2018-12-16T22:14:34.069Z,29.67
2018-12-16T22:17:01.894Z,36.53
2018-12-16T22:19:29.711Z,30.33
2018-12-16T22:21:57.373Z,32.07
2018-12-16T22:24:25.086Z,32.23
2018-12-16T22:26:52.792Z,35.00
2018-12-16T22:29:20.701Z,33.73
2018-12-16T22:31:48.374Z,38.20
2018-12-16T22:34:16.068Z,34.73
2018-12-16T22:36:43.882Z,30.20
2018-12-16T22:39:11.543Z,40.70
2018-12-16T22:41:39.233Z,37.40
2018-12-16T22:44:17.147Z,36.43
2018-12-16T22:46:44.972Z,32.77
2018-12-16T22:49:12.759Z,36.40
2018-12-16T22:51:40.568Z,33.77
2018-12-16T22:54:08.270Z,31.83
2018-12-16T22:56:36.027Z,40.03
2018-12-16T22:59:03.859Z,33.30
2018-12-16T23:01:31.536Z,33.60
2018-12-16T23:03:59.231Z,36.93
2018-12-16T23:06:26.909Z,32.83
2018-12-16T23:08:54.634Z,33.53
2018-12-16T23:11:22.317Z,34.30
2018-12-16T23:13:50.113Z,27.00
2018-12-16T23:16:17.827Z,29.37
2018-12-16T23:18:45.698Z,30.87
2018-12-16T23:21:13.436Z,27.80
2018-12-16T23:23:41.074Z,27.80
2018-12-16T23:26:08.850Z,30.40
2018-12-16T23:28:36.639Z,30.70
2018-12-16T23:31:04.422Z,28.50
2018-12-16T23:33:32.776Z,26.90
2018-12-16T23:36:00.389Z,33.00
2018-12-16T23:38:28.185Z,26.60
2018-12-16T23:40:55.987Z,25.17
2018-12-16T23:43:23.685Z,32.60
2018-12-16T23:45:51.370Z,29.00
2018-12-16T23:48:19.097Z,29.50
2018-12-16T23:50:46.841Z,33.33
2018-12-16T23:53:14.639Z,28.17
2018-12-16T23:55:42.351Z,29.60
2018-12-16T23:58:10.027Z,27.87
